Time;durP1;ratioP1;P1;durP2;ratioP2;P2;SDS_P1;SDS_P2;PMS_P1;PMS_P2;Temp;Humidity;BMP_temperature;BMP_pressure;BME280_temperature;BME280_humidity;BME280_pressure;Samples;Min_cycle;Max_cycle;Signal;HPM_P1;HPM_P2
2022/08/14 00:00:47;;;;;;;4.50;2.70;;;;;;;;;;5054270;28;20670;-69
2022/08/14 00:03:22;;;;;;;6.90;3.60;;;;;;;;;;5054456;28;20449;-69
2022/08/14 00:05:49;;;;;;;2.77;2.20;;;;;;;;;;5053450;28;20618;-69
2022/08/14 00:08:17;;;;;;;3.67;2.70;;;;;;;;;;5052887;28;20468;-69
2022/08/14 00:10:44;;;;;;;4.97;2.97;;;;;;;;;;5053720;28;20952;-69
2022/08/14 00:13:12;;;;;;;5.43;2.73;;;;;;;;;;5054773;28;20572;-69
2022/08/14 00:15:40;;;;;;;4.90;2.73;;;;;;;;;;5055184;28;20457;-69
2022/08/14 00:18:10;;;;;;;4.73;2.50;;;;;;;;;;5053026;28;20461;-70
2022/08/14 00:20:38;;;;;;;4.40;3.47;;;;;;;;;;5052651;28;20957;-70
2022/08/14 00:23:06;;;;;;;6.77;3.17;;;;;;;;;;5046049;28;20535;-70
2022/08/14 00:25:35;;;;;;;3.13;2.37;;;;;;;;;;5032623;28;20530;-69
2022/08/14 00:28:02;;;;;;;3.40;2.40;;;;;;;;;;5032347;28;20454;-69
2022/08/14 00:30:32;;;;;;;3.80;2.90;;;;;;;;;;5053876;28;20493;-71
2022/08/14 00:32:59;;;;;;;4.13;2.57;;;;;;;;;;5054633;28;21135;-69
2022/08/14 00:35:27;;;;;;;4.23;2.87;;;;;;;;;;5053849;28;20780;-69
2022/08/14 00:37:54;;;;;;;5.03;3.07;;;;;;;;;;5054269;28;20519;-69
2022/08/14 00:40:21;;;;;;;3.03;2.30;;;;;;;;;;5053309;28;20457;-69
2022/08/14 00:42:49;;;;;;;3.23;2.60;;;;;;;;;;5053746;28;20457;-69
2022/08/14 00:45:17;;;;;;;3.20;2.40;;;;;;;;;;5052390;28;20460;-69
2022/08/14 00:47:45;;;;;;;4.97;3.23;;;;;;;;;;5053846;28;20453;-69
2022/08/14 00:50:14;;;;;;;5.27;2.90;;;;;;;;;;5053382;28;20442;-69
2022/08/14 00:52:42;;;;;;;4.70;2.60;;;;;;;;;;5054205;28;20542;-69
2022/08/14 00:55:10;;;;;;;5.10;2.50;;;;;;;;;;5054199;28;20456;-69
2022/08/14 00:57:40;;;;;;;3.67;2.47;;;;;;;;;;5054239;28;20453;-69
2022/08/14 01:00:12;;;;;;;2.83;2.17;;;;;;;;;;5053392;28;20454;-69
2022/08/14 01:02:42;;;;;;;4.20;3.10;;;;;;;;;;5054167;28;20465;-69
2022/08/14 01:05:22;;;;;;;3.60;2.47;;;;;;;;;;5052375;28;21008;-69
2022/08/14 01:07:50;;;;;;;3.27;2.50;;;;;;;;;;5053911;28;20824;-69
2022/08/14 01:10:17;;;;;;;8.53;2.70;;;;;;;;;;5053463;28;20449;-68
2022/08/14 01:12:45;;;;;;;4.97;3.23;;;;;;;;;;5053736;28;20732;-69
2022/08/14 01:15:13;;;;;;;4.67;2.33;;;;;;;;;;5054699;28;20453;-69
2022/08/14 01:23:04;;;;;;;3.53;2.87;;;;;;;;;;5035010;28;20453;-69
2022/08/14 01:25:31;;;;;;;5.50;2.60;;;;;;;;;;5053183;28;20453;-69
2022/08/14 01:27:58;;;;;;;3.63;2.40;;;;;;;;;;5053613;28;20472;-69
2022/08/14 01:30:25;;;;;;;4.00;2.83;;;;;;;;;;5052007;28;20468;-69
2022/08/14 01:32:53;;;;;;;3.67;2.77;;;;;;;;;;5054322;28;20461;-69
2022/08/14 01:35:20;;;;;;;3.10;2.53;;;;;;;;;;5053196;28;20468;-69
2022/08/14 01:37:47;;;;;;;4.90;2.53;;;;;;;;;;5053754;28;20450;-69
2022/08/14 01:40:16;;;;;;;3.90;2.63;;;;;;;;;;5052806;28;20457;-69
2022/08/14 01:42:43;;;;;;;3.13;2.40;;;;;;;;;;5052906;28;20462;-69
2022/08/14 01:45:12;;;;;;;6.03;2.60;;;;;;;;;;5051341;28;20449;-69
2022/08/14 01:47:39;;;;;;;3.50;2.80;;;;;;;;;;5052690;28;20474;-69
2022/08/14 01:50:07;;;;;;;6.43;3.70;;;;;;;;;;5051963;28;20484;-69
2022/08/14 01:52:35;;;;;;;3.47;3.17;;;;;;;;;;5051567;28;20917;-68
2022/08/14 01:55:02;;;;;;;3.90;2.67;;;;;;;;;;5052252;28;20459;-70
2022/08/14 01:57:30;;;;;;;3.93;2.77;;;;;;;;;;5053273;28;20466;-68
2022/08/14 01:59:57;;;;;;;3.53;2.90;;;;;;;;;;5053320;28;20453;-69
2022/08/14 02:02:24;;;;;;;3.03;2.37;;;;;;;;;;5049929;28;20473;-69
2022/08/14 02:04:52;;;;;;;3.83;3.00;;;;;;;;;;5033117;28;20442;-70
2022/08/14 02:07:20;;;;;;;5.33;2.60;;;;;;;;;;5032404;28;20494;-70
2022/08/14 02:09:47;;;;;;;4.90;3.30;;;;;;;;;;5031199;28;20621;-68
2022/08/14 02:12:18;;;;;;;4.10;2.80;;;;;;;;;;5032026;28;20494;-70
2022/08/14 02:14:47;;;;;;;4.17;2.90;;;;;;;;;;5031764;28;20474;-69
2022/08/14 02:17:14;;;;;;;3.50;2.70;;;;;;;;;;5032196;28;20898;-70
2022/08/14 02:19:41;;;;;;;6.30;2.93;;;;;;;;;;5031805;28;20560;-70
2022/08/14 02:22:08;;;;;;;7.87;2.67;;;;;;;;;;5031564;28;21033;-70
2022/08/14 02:24:36;;;;;;;3.80;2.50;;;;;;;;;;5032270;28;20548;-70
2022/08/14 02:27:04;;;;;;;3.00;2.43;;;;;;;;;;5031778;28;20622;-70
2022/08/14 02:29:31;;;;;;;4.67;3.10;;;;;;;;;;5033289;28;20843;-70
2022/08/14 02:32:02;;;;;;;4.57;3.00;;;;;;;;;;5031578;28;20486;-70
2022/08/14 02:34:33;;;;;;;3.10;2.40;;;;;;;;;;5031589;28;20462;-70
2022/08/14 02:37:01;;;;;;;3.67;2.60;;;;;;;;;;5031852;28;20878;-70
2022/08/14 02:39:29;;;;;;;5.30;2.50;;;;;;;;;;5032159;28;20925;-70
2022/08/14 02:41:56;;;;;;;3.30;2.33;;;;;;;;;;5032609;28;20685;-70
2022/08/14 02:44:26;;;;;;;4.37;2.83;;;;;;;;;;5036473;28;20460;-70
2022/08/14 02:46:55;;;;;;;6.37;3.03;;;;;;;;;;5035245;28;20450;-69
2022/08/14 02:49:25;;;;;;;4.23;2.70;;;;;;;;;;5034917;28;20450;-69
2022/08/14 02:51:53;;;;;;;3.90;2.33;;;;;;;;;;5035823;28;20999;-69
2022/08/14 02:54:21;;;;;;;7.07;2.50;;;;;;;;;;5034889;28;20448;-69
2022/08/14 02:56:49;;;;;;;3.20;2.37;;;;;;;;;;5035588;28;20567;-68
2022/08/14 02:59:17;;;;;;;6.30;2.63;;;;;;;;;;5035223;28;20438;-69
2022/08/14 03:01:44;;;;;;;4.43;2.03;;;;;;;;;;5035487;28;20940;-70
2022/08/14 03:04:14;;;;;;;6.30;2.70;;;;;;;;;;5035705;28;20488;-69
2022/08/14 03:06:47;;;;;;;4.97;3.03;;;;;;;;;;5035120;28;20460;-69
2022/08/14 03:09:14;;;;;;;3.30;2.73;;;;;;;;;;5035258;28;20917;-69
2022/08/14 03:11:43;;;;;;;4.73;2.37;;;;;;;;;;5034587;28;20485;-69
2022/08/14 03:14:11;;;;;;;5.50;2.63;;;;;;;;;;5036258;28;20889;-69
2022/08/14 03:16:38;;;;;;;3.50;2.40;;;;;;;;;;5035236;28;20543;-69
2022/08/14 03:19:06;;;;;;;3.43;2.80;;;;;;;;;;5035805;28;20438;-69
2022/08/14 03:21:35;;;;;;;4.37;2.90;;;;;;;;;;5034517;28;20840;-69
2022/08/14 03:24:10;;;;;;;3.50;2.40;;;;;;;;;;5035011;28;20478;-68
2022/08/14 03:26:39;;;;;;;2.97;2.40;;;;;;;;;;5035198;28;20785;-68
2022/08/14 03:29:06;;;;;;;5.23;2.90;;;;;;;;;;5034968;28;20454;-69
2022/08/14 03:31:35;;;;;;;4.53;3.03;;;;;;;;;;5034845;28;20486;-68
2022/08/14 03:34:03;;;;;;;4.73;2.57;;;;;;;;;;5035321;28;20858;-69
2022/08/14 03:36:31;;;;;;;3.70;2.73;;;;;;;;;;5034666;28;20458;-70
2022/08/14 03:38:58;;;;;;;8.70;3.40;;;;;;;;;;5034195;28;20478;-70
2022/08/14 03:41:27;;;;;;;3.40;2.47;;;;;;;;;;5034813;28;20457;-70
2022/08/14 03:43:56;;;;;;;4.20;2.80;;;;;;;;;;5039065;28;20501;-70
2022/08/14 03:46:25;;;;;;;4.03;2.83;;;;;;;;;;5038352;28;20526;-71
2022/08/14 03:48:53;;;;;;;6.80;2.60;;;;;;;;;;5054877;28;20460;-70
2022/08/14 03:51:21;;;;;;;6.60;3.00;;;;;;;;;;5053290;28;20496;-70
2022/08/14 03:53:48;;;;;;;3.83;2.40;;;;;;;;;;5055010;28;20514;-70
2022/08/14 03:56:17;;;;;;;4.90;2.70;;;;;;;;;;5054891;28;20457;-70
2022/08/14 03:58:47;;;;;;;6.93;2.63;;;;;;;;;;5054217;28;20475;-70
2022/08/14 04:01:21;;;;;;;5.40;3.27;;;;;;;;;;5054155;28;20464;-71
2022/08/14 04:03:48;;;;;;;8.70;4.33;;;;;;;;;;5055167;28;20556;-70
2022/08/14 04:06:20;;;;;;;3.83;2.90;;;;;;;;;;5052982;28;20456;-70
2022/08/14 04:08:48;;;;;;;3.33;2.83;;;;;;;;;;5054518;28;20457;-70
2022/08/14 04:11:23;;;;;;;3.90;2.90;;;;;;;;;;5053816;28;20497;-70
2022/08/14 04:13:53;;;;;;;3.40;2.70;;;;;;;;;;5051739;28;20865;-70
2022/08/14 04:16:21;;;;;;;3.30;2.80;;;;;;;;;;5054060;28;20870;-69
2022/08/14 04:18:51;;;;;;;6.47;3.60;;;;;;;;;;5053182;28;20456;-70
2022/08/14 04:21:19;;;;;;;6.37;2.80;;;;;;;;;;5053143;28;20530;-70
2022/08/14 04:23:48;;;;;;;4.93;3.00;;;;;;;;;;5053216;28;20469;-70
2022/08/14 04:26:20;;;;;;;5.87;3.40;;;;;;;;;;5053121;28;20978;-69
2022/08/14 04:28:48;;;;;;;3.97;2.80;;;;;;;;;;5052556;28;20770;-69
2022/08/14 04:31:23;;;;;;;4.80;3.27;;;;;;;;;;5053001;28;20485;-70
2022/08/14 04:33:51;;;;;;;5.80;2.97;;;;;;;;;;5054340;28;20535;-70
2022/08/14 04:36:18;;;;;;;3.43;2.60;;;;;;;;;;5053147;28;20461;-70
2022/08/14 04:44:19;;;;;;;3.40;2.63;;;;;;;;;;5054411;28;20440;-70
2022/08/14 04:49:31;;;;;;;28.53;7.60;;;;;;;;;;5053440;28;20540;-70
2022/08/14 04:51:59;;;;;;;4.70;3.43;;;;;;;;;;5053402;28;20492;-70
2022/08/14 04:54:26;;;;;;;5.63;3.10;;;;;;;;;;5053413;28;20729;-70
2022/08/14 04:56:56;;;;;;;4.80;2.80;;;;;;;;;;5053447;28;20917;-70
2022/08/14 04:59:24;;;;;;;4.07;3.00;;;;;;;;;;5052582;28;21095;-70
2022/08/14 05:01:52;;;;;;;4.50;2.97;;;;;;;;;;5052939;28;21168;-70
2022/08/14 05:04:19;;;;;;;4.30;2.83;;;;;;;;;;5052523;28;20792;-70
2022/08/14 05:06:48;;;;;;;6.17;3.40;;;;;;;;;;5052717;28;20464;-70
2022/08/14 05:09:16;;;;;;;4.60;3.30;;;;;;;;;;5052231;28;20774;-70
2022/08/14 05:11:43;;;;;;;5.20;2.80;;;;;;;;;;5052403;28;20493;-71
2022/08/14 05:14:10;;;;;;;7.13;3.20;;;;;;;;;;5052455;28;20463;-71
2022/08/14 05:16:37;;;;;;;3.10;2.73;;;;;;;;;;5052406;28;20526;-71
2022/08/14 05:19:12;;;;;;;6.50;3.30;;;;;;;;;;5051901;28;20684;-71
2022/08/14 05:21:40;;;;;;;6.43;3.23;;;;;;;;;;5051904;28;20457;-71
2022/08/14 05:24:10;;;;;;;4.77;3.00;;;;;;;;;;5051669;28;20859;-71
2022/08/14 05:26:41;;;;;;;3.80;3.40;;;;;;;;;;5052098;28;20456;-71
2022/08/14 05:29:08;;;;;;;7.07;3.10;;;;;;;;;;5052163;28;20458;-71
2022/08/14 05:31:38;;;;;;;3.73;2.50;;;;;;;;;;5053041;28;20505;-71
2022/08/14 05:34:06;;;;;;;4.47;3.17;;;;;;;;;;5052702;28;20850;-71
2022/08/14 05:36:34;;;;;;;3.30;3.00;;;;;;;;;;5052973;28;20473;-72
2022/08/14 05:39:01;;;;;;;3.37;2.80;;;;;;;;;;5052397;28;20527;-71
2022/08/14 05:41:29;;;;;;;6.10;3.10;;;;;;;;;;5052576;28;20450;-71
2022/08/14 05:43:56;;;;;;;4.30;2.90;;;;;;;;;;5051386;28;20686;-71
2022/08/14 05:46:23;;;;;;;10.50;3.27;;;;;;;;;;5051029;28;20449;-71
2022/08/14 05:48:50;;;;;;;5.20;3.47;;;;;;;;;;5051602;28;20971;-71
2022/08/14 05:51:17;;;;;;;6.90;2.70;;;;;;;;;;5051576;28;20523;-71
2022/08/14 05:53:45;;;;;;;4.90;3.13;;;;;;;;;;5051530;28;20730;-71
2022/08/14 05:56:12;;;;;;;6.53;2.60;;;;;;;;;;5045916;28;20469;-71
2022/08/14 05:58:40;;;;;;;5.40;3.30;;;;;;;;;;5032839;28;20466;-71
2022/08/14 06:01:08;;;;;;;3.60;3.20;;;;;;;;;;5032119;28;20490;-71
2022/08/14 06:03:35;;;;;;;5.50;2.80;;;;;;;;;;5031166;28;20446;-71
2022/08/14 06:06:02;;;;;;;3.87;3.13;;;;;;;;;;5031443;28;20458;-71
2022/08/14 06:08:30;;;;;;;4.30;2.83;;;;;;;;;;5031790;28;20684;-71
2022/08/14 06:11:02;;;;;;;7.33;4.30;;;;;;;;;;5031609;28;20508;-71
2022/08/14 06:13:29;;;;;;;4.80;2.87;;;;;;;;;;5038677;28;20469;-71
2022/08/14 06:15:56;;;;;;;3.27;2.70;;;;;;;;;;5038940;28;20501;-71
2022/08/14 06:18:23;;;;;;;5.83;3.07;;;;;;;;;;5030582;28;20511;-71
2022/08/14 06:20:50;;;;;;;5.80;3.60;;;;;;;;;;5049596;28;20894;-71
2022/08/14 06:23:17;;;;;;;4.27;3.07;;;;;;;;;;5051200;28;20485;-71
2022/08/14 06:25:45;;;;;;;5.10;3.00;;;;;;;;;;5050497;28;20877;-71
2022/08/14 06:28:17;;;;;;;4.33;3.17;;;;;;;;;;5050813;28;20808;-71
2022/08/14 06:30:44;;;;;;;5.80;3.00;;;;;;;;;;5052097;28;20530;-71
2022/08/14 06:33:11;;;;;;;4.83;3.33;;;;;;;;;;5052681;28;20544;-71
2022/08/14 06:35:42;;;;;;;4.70;2.97;;;;;;;;;;5051741;28;20457;-71
2022/08/14 06:38:15;;;;;;;9.83;3.30;;;;;;;;;;5050981;28;20499;-71
2022/08/14 06:40:42;;;;;;;7.93;2.83;;;;;;;;;;5050393;28;20499;-70
2022/08/14 06:43:10;;;;;;;3.83;2.93;;;;;;;;;;5050332;28;20556;-70
2022/08/14 06:45:40;;;;;;;4.80;2.40;;;;;;;;;;5056107;28;20519;-70
2022/08/14 06:48:13;;;;;;;5.70;3.27;;;;;;;;;;5053351;28;20534;-70
2022/08/14 06:50:41;;;;;;;3.60;2.70;;;;;;;;;;5052439;28;20489;-70
2022/08/14 06:53:08;;;;;;;6.30;2.80;;;;;;;;;;5050455;28;20878;-70
2022/08/14 06:55:38;;;;;;;4.20;3.30;;;;;;;;;;5049675;28;20461;-70
2022/08/14 06:58:05;;;;;;;4.40;2.97;;;;;;;;;;5050276;28;20461;-70
2022/08/14 07:00:32;;;;;;;4.80;3.00;;;;;;;;;;5051660;28;20469;-70
2022/08/14 07:05:45;;;;;;;4.90;3.00;;;;;;;;;;5050525;28;21015;-70
2022/08/14 07:08:17;;;;;;;6.80;3.10;;;;;;;;;;5049366;28;20503;-70
2022/08/14 07:10:44;;;;;;;3.50;2.60;;;;;;;;;;5048588;28;20465;-70
2022/08/14 07:13:12;;;;;;;4.13;2.33;;;;;;;;;;5049765;28;20457;-70
2022/08/14 07:15:39;;;;;;;5.00;2.47;;;;;;;;;;5051686;28;20461;-70
2022/08/14 07:18:07;;;;;;;6.40;3.17;;;;;;;;;;5049498;28;20457;-70
2022/08/14 07:20:34;;;;;;;3.73;3.43;;;;;;;;;;5049600;28;20461;-70
2022/08/14 07:23:02;;;;;;;8.50;3.10;;;;;;;;;;5047892;28;20496;-70
2022/08/14 07:25:32;;;;;;;6.77;2.93;;;;;;;;;;5049573;28;20539;-72
2022/08/14 07:28:02;;;;;;;3.90;3.50;;;;;;;;;;5049631;28;20473;-71
2022/08/14 07:30:32;;;;;;;8.57;3.23;;;;;;;;;;5052087;28;20465;-71
2022/08/14 07:33:06;;;;;;;4.97;3.10;;;;;;;;;;5053917;28;20519;-72
2022/08/14 07:35:34;;;;;;;5.60;3.37;;;;;;;;;;5052626;28;20457;-71
2022/08/14 07:38:01;;;;;;;5.30;4.03;;;;;;;;;;5050973;28;20449;-70
2022/08/14 07:40:28;;;;;;;6.87;4.00;;;;;;;;;;5053112;28;20457;-71
2022/08/14 07:42:56;;;;;;;5.00;3.50;;;;;;;;;;5052471;28;20593;-71
2022/08/14 07:45:23;;;;;;;4.20;3.40;;;;;;;;;;5050660;28;20711;-70
2022/08/14 07:47:50;;;;;;;10.60;3.93;;;;;;;;;;5052148;28;20810;-71
2022/08/14 07:50:18;;;;;;;6.73;3.60;;;;;;;;;;5052069;28;20715;-70
2022/08/14 07:52:47;;;;;;;5.00;3.07;;;;;;;;;;5053059;28;20803;-71
2022/08/14 07:55:15;;;;;;;4.20;3.80;;;;;;;;;;5052373;28;20731;-71
2022/08/14 07:57:43;;;;;;;6.90;3.70;;;;;;;;;;5052589;28;20867;-71
2022/08/14 08:00:11;;;;;;;6.40;3.87;;;;;;;;;;5051830;28;20919;-71
2022/08/14 08:02:40;;;;;;;5.10;3.33;;;;;;;;;;5050434;28;20452;-71
2022/08/14 08:05:08;;;;;;;6.93;3.27;;;;;;;;;;5052758;28;20761;-71
2022/08/14 08:07:35;;;;;;;8.50;4.37;;;;;;;;;;5051397;28;20457;-71
2022/08/14 08:10:29;;;;;;;7.33;3.00;;;;;;;;;;5052214;28;20453;-71
2022/08/14 08:12:55;;;;;;;4.80;3.77;;;;;;;;;;5052246;28;20987;-71
2022/08/14 08:15:23;;;;;;;6.33;3.57;;;;;;;;;;5053090;28;20456;-71
2022/08/14 08:17:51;;;;;;;4.83;3.87;;;;;;;;;;5052339;28;20468;-70
2022/08/14 08:20:22;;;;;;;6.53;4.97;;;;;;;;;;5053708;28;20541;-70
2022/08/14 08:22:50;;;;;;;8.73;3.60;;;;;;;;;;5058114;28;20477;-71
2022/08/14 08:25:19;;;;;;;6.13;4.33;;;;;;;;;;5053092;28;20456;-70
2022/08/14 08:27:55;;;;;;;7.60;3.80;;;;;;;;;;5052605;28;20461;-70
2022/08/14 08:30:25;;;;;;;7.50;4.80;;;;;;;;;;5052742;28;20464;-70
2022/08/14 08:32:52;;;;;;;5.03;3.70;;;;;;;;;;5053537;28;20485;-70
2022/08/14 08:35:20;;;;;;;5.20;4.27;;;;;;;;;;5051749;28;20730;-69
2022/08/14 08:37:50;;;;;;;9.43;4.53;;;;;;;;;;5050725;28;20790;-69
2022/08/14 08:40:25;;;;;;;6.20;3.80;;;;;;;;;;5050252;28;21088;-71
2022/08/14 08:42:52;;;;;;;5.07;4.57;;;;;;;;;;5051624;28;20467;-69
2022/08/14 08:45:21;;;;;;;5.73;4.03;;;;;;;;;;5052000;28;20515;-69
2022/08/14 08:47:49;;;;;;;6.37;4.03;;;;;;;;;;5051885;28;21452;-69
2022/08/14 08:50:18;;;;;;;5.60;4.20;;;;;;;;;;5050682;28;20457;-70
2022/08/14 08:52:50;;;;;;;5.10;4.30;;;;;;;;;;5050962;28;20562;-69
2022/08/14 08:55:23;;;;;;;4.90;4.23;;;;;;;;;;5053966;28;20805;-69
2022/08/14 08:57:54;;;;;;;6.57;5.03;;;;;;;;;;5051516;28;20850;-69
2022/08/14 09:00:22;;;;;;;4.83;4.33;;;;;;;;;;5061754;28;20761;-70
2022/08/14 09:02:56;;;;;;;6.83;5.30;;;;;;;;;;5073476;28;20529;-69
2022/08/14 09:05:24;;;;;;;5.47;4.93;;;;;;;;;;5057760;28;20469;-69
2022/08/14 09:07:51;;;;;;;8.13;5.17;;;;;;;;;;5050010;28;20560;-70
2022/08/14 09:10:19;;;;;;;8.13;4.80;;;;;;;;;;5040942;28;20466;-70
2022/08/14 09:12:46;;;;;;;8.10;5.23;;;;;;;;;;5030243;28;20837;-69
2022/08/14 09:15:14;;;;;;;8.00;5.17;;;;;;;;;;5040790;28;20540;-70
2022/08/14 09:17:42;;;;;;;5.30;4.80;;;;;;;;;;5050966;28;20531;-69
2022/08/14 09:20:10;;;;;;;6.33;4.60;;;;;;;;;;5053714;28;20453;-70
2022/08/14 09:22:37;;;;;;;8.33;4.63;;;;;;;;;;5052524;28;20554;-71
2022/08/14 09:25:08;;;;;;;4.97;4.40;;;;;;;;;;5052651;28;21105;-72
2022/08/14 09:27:41;;;;;;;9.67;5.03;;;;;;;;;;5052173;28;20453;-71
2022/08/14 09:30:09;;;;;;;5.50;4.53;;;;;;;;;;5052656;28;20473;-71
2022/08/14 09:35:36;;;;;;;6.53;4.03;;;;;;;;;;5049165;28;20457;-72
2022/08/14 09:38:17;;;;;;;4.93;4.37;;;;;;;;;;5051069;28;20457;-72
2022/08/14 09:40:59;;;;;;;5.60;5.10;;;;;;;;;;5050524;28;20465;-72
2022/08/14 09:43:33;;;;;;;6.40;4.50;;;;;;;;;;5050625;28;20457;-71
2022/08/14 09:46:00;;;;;;;5.90;5.30;;;;;;;;;;5051158;28;20461;-71
2022/08/14 09:48:28;;;;;;;6.33;5.13;;;;;;;;;;5049524;28;20923;-69
2022/08/14 09:50:56;;;;;;;5.97;5.37;;;;;;;;;;5049504;28;20487;-70
2022/08/14 09:53:42;;;;;;;8.97;4.60;;;;;;;;;;5052149;28;20953;-70
2022/08/14 09:56:10;;;;;;;5.97;5.30;;;;;;;;;;5031998;28;20731;-70
2022/08/14 09:58:38;;;;;;;14.20;5.53;;;;;;;;;;5030100;28;20453;-70
2022/08/14 10:01:10;;;;;;;5.87;5.27;;;;;;;;;;5043462;28;20515;-71
2022/08/14 10:03:38;;;;;;;9.20;5.93;;;;;;;;;;5051820;28;20873;-71
2022/08/14 10:06:06;;;;;;;7.00;5.50;;;;;;;;;;5051472;28;20460;-71
2022/08/14 10:08:41;;;;;;;6.67;4.90;;;;;;;;;;5049836;28;20560;-72
2022/08/14 10:11:18;;;;;;;7.77;4.90;;;;;;;;;;5049412;28;20549;-70
2022/08/14 10:13:47;;;;;;;4.90;4.40;;;;;;;;;;5048982;28;20466;-71
2022/08/14 10:16:15;;;;;;;8.60;5.67;;;;;;;;;;5051584;28;20497;-70
2022/08/14 10:18:43;;;;;;;4.50;4.10;;;;;;;;;;5051626;28;20452;-71
2022/08/14 10:21:16;;;;;;;6.53;5.10;;;;;;;;;;5050128;28;20449;-71
2022/08/14 10:23:46;;;;;;;18.07;16.33;;;;;;;;;;5048233;28;20449;-71
2022/08/14 10:26:17;;;;;;;5.90;5.03;;;;;;;;;;5048350;28;20565;-71
2022/08/14 10:28:45;;;;;;;5.63;5.03;;;;;;;;;;5049034;28;21117;-71
2022/08/14 10:31:22;;;;;;;6.17;4.63;;;;;;;;;;5051433;28;20896;-71
2022/08/14 10:34:00;;;;;;;6.50;4.90;;;;;;;;;;5050871;28;20810;-71
2022/08/14 10:36:31;;;;;;;7.70;5.43;;;;;;;;;;5051377;28;20523;-70
2022/08/14 10:38:59;;;;;;;6.93;5.10;;;;;;;;;;5048029;28;20467;-70
2022/08/14 10:41:34;;;;;;;5.20;4.70;;;;;;;;;;5047813;28;20453;-70
2022/08/14 10:44:07;;;;;;;8.80;6.67;;;;;;;;;;5038062;28;20685;-71
2022/08/14 10:46:42;;;;;;;6.00;5.17;;;;;;;;;;5031113;28;20460;-72
2022/08/14 10:49:17;;;;;;;5.37;4.73;;;;;;;;;;5028793;28;20453;-70
2022/08/14 10:52:02;;;;;;;6.13;5.40;;;;;;;;;;5029933;28;20937;-70
2022/08/14 10:54:30;;;;;;;10.33;8.73;;;;;;;;;;5039785;28;20689;-70
2022/08/14 10:56:58;;;;;;;5.53;5.03;;;;;;;;;;5047111;28;20456;-69
2022/08/14 10:59:25;;;;;;;7.73;5.43;;;;;;;;;;5047537;28;20889;-70
2022/08/14 11:01:52;;;;;;;5.63;5.07;;;;;;;;;;5048113;28;20464;-70
2022/08/14 11:04:27;;;;;;;5.93;5.33;;;;;;;;;;5051318;28;20495;-70
2022/08/14 11:06:54;;;;;;;5.17;4.67;;;;;;;;;;5069297;28;20489;-70
2022/08/14 11:09:21;;;;;;;5.30;4.73;;;;;;;;;;5067111;28;20518;-71
2022/08/14 11:11:55;;;;;;;6.97;5.37;;;;;;;;;;5050861;28;20535;-70
2022/08/14 11:14:22;;;;;;;7.40;4.67;;;;;;;;;;5052106;28;20464;-70
2022/08/14 11:16:50;;;;;;;6.30;5.37;;;;;;;;;;5053613;28;20527;-70
2022/08/14 11:19:18;;;;;;;7.13;5.20;;;;;;;;;;5051372;28;20499;-74
2022/08/14 11:21:49;;;;;;;9.40;5.30;;;;;;;;;;5042845;28;20459;-70
2022/08/14 11:24:17;;;;;;;8.17;7.37;;;;;;;;;;5054434;28;20865;-69
2022/08/14 11:26:45;;;;;;;6.37;5.77;;;;;;;;;;5054286;28;20454;-69
2022/08/14 11:29:12;;;;;;;6.40;5.80;;;;;;;;;;5052416;28;20457;-69
2022/08/14 11:31:41;;;;;;;6.90;5.10;;;;;;;;;;5052489;28;20982;-71
2022/08/14 11:34:09;;;;;;;16.90;6.33;;;;;;;;;;5051586;28;20489;-71
2022/08/14 11:36:36;;;;;;;8.43;5.57;;;;;;;;;;5052861;28;20679;-70
2022/08/14 11:39:04;;;;;;;6.50;5.87;;;;;;;;;;5051783;28;20493;-69
2022/08/14 11:41:35;;;;;;;6.53;5.87;;;;;;;;;;5051180;28;20681;-70
2022/08/14 11:44:03;;;;;;;6.70;5.40;;;;;;;;;;5052125;28;20454;-70
2022/08/14 11:46:31;;;;;;;7.93;5.33;;;;;;;;;;5052969;28;20437;-69
2022/08/14 11:49:00;;;;;;;5.60;4.93;;;;;;;;;;5051059;28;20474;-69
2022/08/14 11:51:27;;;;;;;6.00;4.80;;;;;;;;;;5053619;28;20525;-69
2022/08/14 11:53:56;;;;;;;7.40;5.87;;;;;;;;;;5052509;28;20469;-71
2022/08/14 11:56:34;;;;;;;5.27;4.77;;;;;;;;;;5053256;28;20579;-69
2022/08/14 11:59:01;;;;;;;6.73;5.50;;;;;;;;;;5053175;28;20461;-70
2022/08/14 12:01:35;;;;;;;5.80;5.20;;;;;;;;;;5049998;28;20473;-70
2022/08/14 12:04:09;;;;;;;7.77;7.00;;;;;;;;;;5050942;28;20884;-70
2022/08/14 12:06:47;;;;;;;5.93;5.37;;;;;;;;;;5051415;28;20452;-70
2022/08/14 12:09:15;;;;;;;5.97;5.27;;;;;;;;;;5058740;28;20465;-71
2022/08/14 12:11:44;;;;;;;5.97;4.73;;;;;;;;;;5049669;28;20917;-71
2022/08/14 12:14:11;;;;;;;7.03;5.97;;;;;;;;;;5049492;28;20576;-72
2022/08/14 12:16:39;;;;;;;7.73;5.83;;;;;;;;;;5050343;28;20472;-72
2022/08/14 12:19:25;;;;;;;21.37;18.90;;;;;;;;;;5051503;28;20897;-72
2022/08/14 12:22:02;;;;;;;5.90;5.30;;;;;;;;;;5066328;28;20445;-71
2022/08/14 12:24:29;;;;;;;9.57;5.00;;;;;;;;;;5071714;28;20456;-70
2022/08/14 12:26:57;;;;;;;6.90;5.50;;;;;;;;;;5070997;28;20444;-70
2022/08/14 12:29:24;;;;;;;7.47;5.43;;;;;;;;;;5051809;28;20460;-70
2022/08/14 12:31:58;;;;;;;7.43;6.50;;;;;;;;;;5056021;28;20549;-71
2022/08/14 12:34:33;;;;;;;7.20;5.67;;;;;;;;;;5050052;28;20530;-72
2022/08/14 12:37:07;;;;;;;30.23;22.87;;;;;;;;;;5043525;28;20795;-70
2022/08/14 12:39:35;;;;;;;5.80;5.20;;;;;;;;;;5052763;28;20456;-72
2022/08/14 12:42:05;;;;;;;6.47;5.47;;;;;;;;;;5050492;28;20473;-72
2022/08/14 12:44:36;;;;;;;6.50;5.87;;;;;;;;;;5050068;28;20457;-71
2022/08/14 12:47:09;;;;;;;6.40;5.30;;;;;;;;;;5051339;28;20452;-71
2022/08/14 12:49:37;;;;;;;6.40;5.73;;;;;;;;;;5049209;28;20457;-71
2022/08/14 12:52:06;;;;;;;6.30;5.47;;;;;;;;;;5049621;28;20764;-71
2022/08/14 12:54:34;;;;;;;5.83;5.23;;;;;;;;;;5051089;28;20454;-72
2022/08/14 12:57:06;;;;;;;6.70;5.63;;;;;;;;;;5051459;28;20461;-71
2022/08/14 12:59:34;;;;;;;8.60;6.10;;;;;;;;;;5048861;28;20466;-71
2022/08/14 13:02:02;;;;;;;6.67;5.50;;;;;;;;;;5050043;28;20536;-71
2022/08/14 13:04:30;;;;;;;8.67;6.10;;;;;;;;;;5049636;28;20469;-72
2022/08/14 13:07:03;;;;;;;7.17;6.20;;;;;;;;;;5058327;28;20869;-72
2022/08/14 13:09:30;;;;;;;6.20;5.60;;;;;;;;;;5052050;28;20552;-71
2022/08/14 13:11:57;;;;;;;7.33;6.60;;;;;;;;;;5052440;28;21011;-72
2022/08/14 13:14:29;;;;;;;7.90;6.40;;;;;;;;;;5053369;28;20453;-72
2022/08/14 13:16:57;;;;;;;6.97;6.27;;;;;;;;;;5050953;28;20461;-71
2022/08/14 13:19:25;;;;;;;7.37;5.80;;;;;;;;;;5050005;28;20445;-71
2022/08/14 13:21:54;;;;;;;7.70;6.27;;;;;;;;;;5048444;28;20552;-72
2022/08/14 13:24:21;;;;;;;8.13;6.43;;;;;;;;;;5047200;28;20446;-71
2022/08/14 13:26:50;;;;;;;7.40;5.43;;;;;;;;;;5065644;28;20868;-72
2022/08/14 13:29:19;;;;;;;7.30;5.53;;;;;;;;;;5049953;28;20885;-70
2022/08/14 13:31:50;;;;;;;7.13;5.60;;;;;;;;;;5052620;28;20535;-72
2022/08/14 13:34:19;;;;;;;8.27;6.50;;;;;;;;;;5051664;28;20457;-71
2022/08/14 13:36:48;;;;;;;8.23;7.37;;;;;;;;;;5051390;28;20538;-72
2022/08/14 13:39:15;;;;;;;7.23;6.50;;;;;;;;;;5050353;28;20487;-72
2022/08/14 13:41:46;;;;;;;6.70;6.00;;;;;;;;;;5051429;28;20477;-72
2022/08/14 13:44:14;;;;;;;8.10;6.27;;;;;;;;;;5048703;28;20772;-72
2022/08/14 13:46:42;;;;;;;7.23;6.03;;;;;;;;;;5043804;28;20465;-70
2022/08/14 13:49:10;;;;;;;8.40;5.80;;;;;;;;;;5032437;28;21034;-70
2022/08/14 13:51:39;;;;;;;6.40;5.80;;;;;;;;;;5048990;28;20496;-70
2022/08/14 13:54:11;;;;;;;6.17;5.57;;;;;;;;;;5050345;28;21007;-70
2022/08/14 13:56:41;;;;;;;10.90;7.00;;;;;;;;;;5044203;28;20481;-70
2022/08/14 13:59:09;;;;;;;6.27;5.63;;;;;;;;;;5039105;28;20810;-69
2022/08/14 14:01:40;;;;;;;31.47;28.37;;;;;;;;;;5045743;28;20794;-73
2022/08/14 14:04:10;;;;;;;8.10;6.23;;;;;;;;;;5029713;28;20509;-72
2022/08/14 14:06:38;;;;;;;7.10;6.40;;;;;;;;;;5029104;28;20458;-72
2022/08/14 14:09:09;;;;;;;9.30;7.10;;;;;;;;;;5027855;28;20482;-72
2022/08/14 14:11:36;;;;;;;9.57;7.20;;;;;;;;;;5027631;28;20567;-72
2022/08/14 14:14:03;;;;;;;7.83;7.00;;;;;;;;;;5029362;28;20446;-72
2022/08/14 14:16:32;;;;;;;7.43;6.13;;;;;;;;;;5030028;28;20584;-74
2022/08/14 14:19:01;;;;;;;6.90;6.20;;;;;;;;;;5039665;28;20521;-73
2022/08/14 14:21:30;;;;;;;6.27;5.63;;;;;;;;;;5050530;28;20461;-72
2022/08/14 14:23:58;;;;;;;13.47;10.27;;;;;;;;;;5058838;28;20448;-72
2022/08/14 14:26:27;;;;;;;7.47;5.67;;;;;;;;;;5050443;28;20705;-72
2022/08/14 14:28:56;;;;;;;6.10;5.50;;;;;;;;;;5049241;28;20984;-73
2022/08/14 14:31:27;;;;;;;6.77;6.03;;;;;;;;;;5047673;28;20719;-72
2022/08/14 14:33:56;;;;;;;6.70;5.80;;;;;;;;;;5049388;28;20449;-71
2022/08/14 14:36:25;;;;;;;6.50;5.73;;;;;;;;;;5048799;28;20877;-73
2022/08/14 14:38:53;;;;;;;9.70;7.00;;;;;;;;;;5054290;28;20445;-72
2022/08/14 14:41:22;;;;;;;8.33;6.00;;;;;;;;;;5041211;28;20796;-71
2022/08/14 14:43:51;;;;;;;13.57;7.03;;;;;;;;;;5054629;28;20450;-74
2022/08/14 14:46:18;;;;;;;7.50;6.17;;;;;;;;;;5039787;28;20762;-73
2022/08/14 14:48:45;;;;;;;5.80;5.20;;;;;;;;;;5038383;28;20453;-72
2022/08/14 14:51:13;;;;;;;8.73;5.63;;;;;;;;;;5076165;28;20468;-72
2022/08/14 14:53:43;;;;;;;7.87;5.40;;;;;;;;;;5076835;28;20484;-70
2022/08/14 14:56:13;;;;;;;9.57;6.10;;;;;;;;;;5079304;28;20801;-70
2022/08/14 14:58:42;;;;;;;7.93;6.17;;;;;;;;;;5076403;28;20539;-72
2022/08/14 15:01:10;;;;;;;7.10;5.90;;;;;;;;;;5078059;28;20470;-72
2022/08/14 15:03:39;;;;;;;6.97;6.37;;;;;;;;;;5067328;28;20515;-72
2022/08/14 15:06:07;;;;;;;12.30;9.30;;;;;;;;;;5056093;28;20467;-72
2022/08/14 15:08:34;;;;;;;7.27;5.87;;;;;;;;;;5058296;28;20449;-72
2022/08/14 15:11:01;;;;;;;8.30;6.73;;;;;;;;;;5057196;28;20457;-72
2022/08/14 15:13:29;;;;;;;6.97;6.20;;;;;;;;;;5054088;28;21097;-72